sensor_id;sensor_type;location;lat;lon;timestamp;temperature;humidity
2783;DHT22;1399;47.072;15.452;2022-07-23T05:41:47;23.50;62.90
2783;DHT22;1399;47.072;15.452;2022-07-23T05:44:13;23.60;62.80
2783;DHT22;1399;47.072;15.452;2022-07-23T05:46:39;23.60;62.70
2783;DHT22;1399;47.072;15.452;2022-07-23T05:49:04;23.60;62.50
2783;DHT22;1399;47.072;15.452;2022-07-23T05:51:30;23.70;62.40
2783;DHT22;1399;47.072;15.452;2022-07-23T05:53:56;23.70;62.20
2783;DHT22;1399;47.072;15.452;2022-07-23T05:56:22;23.80;62.20
2783;DHT22;1399;47.072;15.452;2022-07-23T05:58:47;23.80;61.90
2783;DHT22;1399;47.072;15.452;2022-07-23T06:01:13;23.80;61.70
2783;DHT22;1399;47.072;15.452;2022-07-23T06:03:39;23.90;61.60
2783;DHT22;1399;47.072;15.452;2022-07-23T06:06:05;23.90;61.40
2783;DHT22;1399;47.072;15.452;2022-07-23T06:08:31;24.00;61.30
2783;DHT22;1399;47.072;15.452;2022-07-23T06:10:57;24.10;61.20
2783;DHT22;1399;47.072;15.452;2022-07-23T06:13:22;24.30;61.00
2783;DHT22;1399;47.072;15.452;2022-07-23T06:15:48;24.90;60.20
2783;DHT22;1399;47.072;15.452;2022-07-23T06:18:14;25.60;58.60
2783;DHT22;1399;47.072;15.452;2022-07-23T06:20:40;26.50;57.00
2783;DHT22;1399;47.072;15.452;2022-07-23T06:23:06;27.50;55.20
2783;DHT22;1399;47.072;15.452;2022-07-23T06:25:31;28.40;53.40
2783;DHT22;1399;47.072;15.452;2022-07-23T06:27:57;29.20;51.50
2783;DHT22;1399;47.072;15.452;2022-07-23T06:30:23;30.00;49.80
2783;DHT22;1399;47.072;15.452;2022-07-23T06:32:49;30.60;48.30
2783;DHT22;1399;47.072;15.452;2022-07-23T06:35:16;31.20;47.10
2783;DHT22;1399;47.072;15.452;2022-07-23T06:37:42;31.70;46.00
2783;DHT22;1399;47.072;15.452;2022-07-23T06:40:08;32.10;45.00
2783;DHT22;1399;47.072;15.452;2022-07-23T06:42:34;32.50;44.20
2783;DHT22;1399;47.072;15.452;2022-07-23T06:45:03;32.80;43.60
2783;DHT22;1399;47.072;15.452;2022-07-23T06:47:29;33.10;43.00
2783;DHT22;1399;47.072;15.452;2022-07-23T06:49:55;33.30;42.40
2783;DHT22;1399;47.072;15.452;2022-07-23T06:52:20;33.50;42.00
2783;DHT22;1399;47.072;15.452;2022-07-23T06:54:46;33.60;41.80
2783;DHT22;1399;47.072;15.452;2022-07-23T06:57:12;33.70;41.50
2783;DHT22;1399;47.072;15.452;2022-07-23T06:59:37;33.80;41.30
2783;DHT22;1399;47.072;15.452;2022-07-23T07:02:06;33.80;40.90
2783;DHT22;1399;47.072;15.452;2022-07-23T07:04:32;33.90;40.80
2783;DHT22;1399;47.072;15.452;2022-07-23T07:06:58;33.90;40.70
2783;DHT22;1399;47.072;15.452;2022-07-23T07:09:23;33.80;40.60
2783;DHT22;1399;47.072;15.452;2022-07-23T07:11:49;33.70;40.70
2783;DHT22;1399;47.072;15.452;2022-07-23T07:14:15;33.40;40.90
2783;DHT22;1399;47.072;15.452;2022-07-23T07:16:40;33.20;41.30
2783;DHT22;1399;47.072;15.452;2022-07-23T07:19:06;32.90;41.80
2783;DHT22;1399;47.072;15.452;2022-07-23T07:21:32;32.50;42.40
2783;DHT22;1399;47.072;15.452;2022-07-23T07:23:57;32.10;43.20
2783;DHT22;1399;47.072;15.452;2022-07-23T07:26:23;31.70;44.00
2783;DHT22;1399;47.072;15.452;2022-07-23T07:28:49;31.40;44.60
2783;DHT22;1399;47.072;15.452;2022-07-23T07:31:15;31.10;45.20
2783;DHT22;1399;47.072;15.452;2022-07-23T07:33:40;30.80;45.70
2783;DHT22;1399;47.072;15.452;2022-07-23T07:36:06;30.60;46.20
2783;DHT22;1399;47.072;15.452;2022-07-23T07:38:32;30.40;46.60
2783;DHT22;1399;47.072;15.452;2022-07-23T07:40:58;30.20;47.00
2783;DHT22;1399;47.072;15.452;2022-07-23T07:43:23;30.00;47.40
2783;DHT22;1399;47.072;15.452;2022-07-23T07:45:49;29.90;47.80
2783;DHT22;1399;47.072;15.452;2022-07-23T07:48:15;29.70;48.20
2783;DHT22;1399;47.072;15.452;2022-07-23T07:50:41;29.60;49.20
2783;DHT22;1399;47.072;15.452;2022-07-23T07:53:06;29.40;48.90
2783;DHT22;1399;47.072;15.452;2022-07-23T07:55:32;29.30;49.10
2783;DHT22;1399;47.072;15.452;2022-07-23T07:57:58;29.30;49.40
2783;DHT22;1399;47.072;15.452;2022-07-23T08:00:24;29.20;49.70
2783;DHT22;1399;47.072;15.452;2022-07-23T08:02:52;29.10;49.90
2783;DHT22;1399;47.072;15.452;2022-07-23T08:05:25;29.10;50.10
2783;DHT22;1399;47.072;15.452;2022-07-23T08:07:52;29.00;50.20
2783;DHT22;1399;47.072;15.452;2022-07-23T08:10:18;29.00;50.40
2783;DHT22;1399;47.072;15.452;2022-07-23T08:12:48;29.00;50.50
2783;DHT22;1399;47.072;15.452;2022-07-23T08:15:16;28.90;50.60
2783;DHT22;1399;47.072;15.452;2022-07-23T08:17:43;28.90;50.70
2783;DHT22;1399;47.072;15.452;2022-07-23T08:20:11;28.90;50.70
2783;DHT22;1399;47.072;15.452;2022-07-23T08:22:53;28.80;50.70
2783;DHT22;1399;47.072;15.452;2022-07-23T08:25:28;28.90;50.80
2783;DHT22;1399;47.072;15.452;2022-07-23T08:27:55;28.80;50.80
2783;DHT22;1399;47.072;15.452;2022-07-23T08:30:21;28.80;50.80
2783;DHT22;1399;47.072;15.452;2022-07-23T08:32:51;28.80;50.80
2783;DHT22;1399;47.072;15.452;2022-07-23T08:35:22;28.80;50.80
2783;DHT22;1399;47.072;15.452;2022-07-23T08:37:48;28.80;50.80
2783;DHT22;1399;47.072;15.452;2022-07-23T08:40:14;28.80;50.80
2783;DHT22;1399;47.072;15.452;2022-07-23T08:42:40;28.80;50.70
2783;DHT22;1399;47.072;15.452;2022-07-23T08:45:08;28.80;50.70
2783;DHT22;1399;47.072;15.452;2022-07-23T08:47:36;28.80;50.60
2783;DHT22;1399;47.072;15.452;2022-07-23T08:50:02;28.80;50.50
2783;DHT22;1399;47.072;15.452;2022-07-23T08:52:30;28.80;50.50
2783;DHT22;1399;47.072;15.452;2022-07-23T08:54:57;28.80;50.30
2783;DHT22;1399;47.072;15.452;2022-07-23T08:57:23;28.80;50.20
2783;DHT22;1399;47.072;15.452;2022-07-23T08:59:49;28.80;50.10
2783;DHT22;1399;47.072;15.452;2022-07-23T09:02:14;28.80;50.10
2783;DHT22;1399;47.072;15.452;2022-07-23T09:04:40;28.80;50.00
2783;DHT22;1399;47.072;15.452;2022-07-23T09:07:06;28.80;50.00
2783;DHT22;1399;47.072;15.452;2022-07-23T09:09:31;28.80;49.90
2783;DHT22;1399;47.072;15.452;2022-07-23T09:12:06;28.80;49.90
2783;DHT22;1399;47.072;15.452;2022-07-23T09:17:13;28.80;50.00
2783;DHT22;1399;47.072;15.452;2022-07-23T09:19:41;28.70;50.00
2783;DHT22;1399;47.072;15.452;2022-07-23T09:22:36;28.70;50.00
2783;DHT22;1399;47.072;15.452;2022-07-23T09:25:11;28.70;50.20
2783;DHT22;1399;47.072;15.452;2022-07-23T09:27:57;28.60;50.20
2783;DHT22;1399;47.072;15.452;2022-07-23T09:30:27;28.60;50.20
2783;DHT22;1399;47.072;15.452;2022-07-23T09:33:13;28.60;50.30
2783;DHT22;1399;47.072;15.452;2022-07-23T09:35:54;28.50;50.40
2783;DHT22;1399;47.072;15.452;2022-07-23T09:38:22;28.50;50.40
2783;DHT22;1399;47.072;15.452;2022-07-23T09:41:06;28.50;50.50
2783;DHT22;1399;47.072;15.452;2022-07-23T09:43:32;28.40;50.60
2783;DHT22;1399;47.072;15.452;2022-07-23T09:48:55;28.40;50.70
2783;DHT22;1399;47.072;15.452;2022-07-23T09:51:24;28.40;50.70
2783;DHT22;1399;47.072;15.452;2022-07-23T09:53:59;28.30;50.70
2783;DHT22;1399;47.072;15.452;2022-07-23T09:56:27;28.30;50.80
2783;DHT22;1399;47.072;15.452;2022-07-23T09:58:54;28.30;50.90
2783;DHT22;1399;47.072;15.452;2022-07-23T10:01:33;28.30;51.40
2783;DHT22;1399;47.072;15.452;2022-07-23T10:03:59;28.40;50.70
2783;DHT22;1399;47.072;15.452;2022-07-23T10:06:28;28.40;50.60
2783;DHT22;1399;47.072;15.452;2022-07-23T10:08:58;28.40;50.40
2783;DHT22;1399;47.072;15.452;2022-07-23T10:11:24;28.50;50.30
2783;DHT22;1399;47.072;15.452;2022-07-23T10:13:51;28.50;50.10
2783;DHT22;1399;47.072;15.452;2022-07-23T10:16:25;28.50;50.00
2783;DHT22;1399;47.072;15.452;2022-07-23T10:18:52;28.50;49.90
2783;DHT22;1399;47.072;15.452;2022-07-23T10:21:38;28.60;49.70
2783;DHT22;1399;47.072;15.452;2022-07-23T10:24:36;28.60;49.50
2783;DHT22;1399;47.072;15.452;2022-07-23T10:30:09;28.60;49.20
2783;DHT22;1399;47.072;15.452;2022-07-23T10:37:45;28.60;48.60
2783;DHT22;1399;47.072;15.452;2022-07-23T10:40:18;28.70;48.40
2783;DHT22;1399;47.072;15.452;2022-07-23T10:42:46;28.70;48.20
2783;DHT22;1399;47.072;15.452;2022-07-23T10:47:47;28.70;48.10
2783;DHT22;1399;47.072;15.452;2022-07-23T10:50:31;28.70;48.00
2783;DHT22;1399;47.072;15.452;2022-07-23T10:57:58;28.70;48.10
2783;DHT22;1399;47.072;15.452;2022-07-23T11:00:25;28.70;48.20
2783;DHT22;1399;47.072;15.452;2022-07-23T11:02:56;28.60;48.20
2783;DHT22;1399;47.072;15.452;2022-07-23T11:05:25;28.70;48.30
2783;DHT22;1399;47.072;15.452;2022-07-23T11:13:28;28.70;48.40
2783;DHT22;1399;47.072;15.452;2022-07-23T11:34:48;28.60;48.70
2783;DHT22;1399;47.072;15.452;2022-07-23T11:40:03;28.60;48.60
2783;DHT22;1399;47.072;15.452;2022-07-23T11:42:30;28.60;48.60
2783;DHT22;1399;47.072;15.452;2022-07-23T11:44:56;28.60;48.60
2783;DHT22;1399;47.072;15.452;2022-07-23T11:47:23;28.60;48.60
2783;DHT22;1399;47.072;15.452;2022-07-23T11:52:20;28.60;48.70
2783;DHT22;1399;47.072;15.452;2022-07-23T11:54:56;28.60;48.70
2783;DHT22;1399;47.072;15.452;2022-07-23T11:57:28;28.60;48.70
2783;DHT22;1399;47.072;15.452;2022-07-23T12:00:08;28.60;48.70
2783;DHT22;1399;47.072;15.452;2022-07-23T12:02:40;28.50;48.80
2783;DHT22;1399;47.072;15.452;2022-07-23T12:05:07;28.50;48.80
2783;DHT22;1399;47.072;15.452;2022-07-23T12:07:40;28.50;48.90
2783;DHT22;1399;47.072;15.452;2022-07-23T12:12:58;28.50;48.90
2783;DHT22;1399;47.072;15.452;2022-07-23T12:15:36;28.40;48.90
2783;DHT22;1399;47.072;15.452;2022-07-23T12:18:06;28.40;48.90
2783;DHT22;1399;47.072;15.452;2022-07-23T12:20:40;28.40;49.00
2783;DHT22;1399;47.072;15.452;2022-07-23T12:23:08;28.40;49.00
2783;DHT22;1399;47.072;15.452;2022-07-23T12:25:37;28.50;49.00
2783;DHT22;1399;47.072;15.452;2022-07-23T12:28:16;28.40;48.90
2783;DHT22;1399;47.072;15.452;2022-07-23T12:30:49;28.50;48.90
2783;DHT22;1399;47.072;15.452;2022-07-23T12:35:58;28.50;48.90
2783;DHT22;1399;47.072;15.452;2022-07-23T12:38:26;28.50;48.80
2783;DHT22;1399;47.072;15.452;2022-07-23T12:43:31;28.50;48.70
2783;DHT22;1399;47.072;15.452;2022-07-23T12:46:11;28.50;48.60
2783;DHT22;1399;47.072;15.452;2022-07-23T12:49:00;28.50;48.60
2783;DHT22;1399;47.072;15.452;2022-07-23T12:51:31;28.40;48.40
2783;DHT22;1399;47.072;15.452;2022-07-23T12:54:08;28.50;48.30
2783;DHT22;1399;47.072;15.452;2022-07-23T12:56:36;28.50;48.20
2783;DHT22;1399;47.072;15.452;2022-07-23T12:59:07;28.50;48.00
2783;DHT22;1399;47.072;15.452;2022-07-23T13:01:42;28.50;48.00
2783;DHT22;1399;47.072;15.452;2022-07-23T13:04:12;28.50;47.90
2783;DHT22;1399;47.072;15.452;2022-07-23T13:06:45;28.50;47.90
2783;DHT22;1399;47.072;15.452;2022-07-23T13:09:17;28.50;47.80
2783;DHT22;1399;47.072;15.452;2022-07-23T13:11:44;28.50;47.80
2783;DHT22;1399;47.072;15.452;2022-07-23T13:14:11;28.40;47.80
2783;DHT22;1399;47.072;15.452;2022-07-23T13:16:37;28.40;47.70
2783;DHT22;1399;47.072;15.452;2022-07-23T13:19:03;28.40;47.70
2783;DHT22;1399;47.072;15.452;2022-07-23T13:21:29;28.40;47.70
2783;DHT22;1399;47.072;15.452;2022-07-23T13:23:55;28.40;47.60
2783;DHT22;1399;47.072;15.452;2022-07-23T13:26:22;28.40;47.50
2783;DHT22;1399;47.072;15.452;2022-07-23T13:28:47;28.40;47.50
2783;DHT22;1399;47.072;15.452;2022-07-23T13:31:14;28.40;47.50
2783;DHT22;1399;47.072;15.452;2022-07-23T13:33:39;28.40;47.50
2783;DHT22;1399;47.072;15.452;2022-07-23T13:36:05;28.30;47.50
2783;DHT22;1399;47.072;15.452;2022-07-23T13:38:31;28.30;47.50
2783;DHT22;1399;47.072;15.452;2022-07-23T13:40:58;28.30;47.50
2783;DHT22;1399;47.072;15.452;2022-07-23T13:43:25;28.20;47.60
2783;DHT22;1399;47.072;15.452;2022-07-23T13:45:52;28.20;47.70
2783;DHT22;1399;47.072;15.452;2022-07-23T13:48:19;28.20;47.80
2783;DHT22;1399;47.072;15.452;2022-07-23T13:50:46;28.20;47.80
2783;DHT22;1399;47.072;15.452;2022-07-23T13:53:19;28.20;47.80
2783;DHT22;1399;47.072;15.452;2022-07-23T13:55:46;28.20;47.80
2783;DHT22;1399;47.072;15.452;2022-07-23T13:58:12;28.30;47.80
2783;DHT22;1399;47.072;15.452;2022-07-23T14:00:43;28.30;47.70
2783;DHT22;1399;47.072;15.452;2022-07-23T14:03:10;28.30;47.70
2783;DHT22;1399;47.072;15.452;2022-07-23T14:05:36;28.30;47.60
2783;DHT22;1399;47.072;15.452;2022-07-23T14:08:02;28.30;47.60
2783;DHT22;1399;47.072;15.452;2022-07-23T14:10:29;28.30;47.50
2783;DHT22;1399;47.072;15.452;2022-07-23T14:12:55;28.30;48.20
2783;DHT22;1399;47.072;15.452;2022-07-23T14:15:24;28.30;47.60
2783;DHT22;1399;47.072;15.452;2022-07-23T14:17:49;28.30;47.60
2783;DHT22;1399;47.072;15.452;2022-07-23T14:20:15;28.30;47.70
2783;DHT22;1399;47.072;15.452;2022-07-23T14:22:42;28.30;47.70
2783;DHT22;1399;47.072;15.452;2022-07-23T14:25:08;28.30;47.70
2783;DHT22;1399;47.072;15.452;2022-07-23T14:27:35;28.40;47.70
2783;DHT22;1399;47.072;15.452;2022-07-23T14:30:01;28.40;47.70
2783;DHT22;1399;47.072;15.452;2022-07-23T14:32:27;28.40;47.60
2783;DHT22;1399;47.072;15.452;2022-07-23T14:34:53;28.40;47.60
2783;DHT22;1399;47.072;15.452;2022-07-23T14:37:19;28.40;47.50
2783;DHT22;1399;47.072;15.452;2022-07-23T14:39:45;28.50;47.50
2783;DHT22;1399;47.072;15.452;2022-07-23T14:42:12;28.50;47.40
2783;DHT22;1399;47.072;15.452;2022-07-23T14:44:38;28.50;47.40
2783;DHT22;1399;47.072;15.452;2022-07-23T14:47:05;28.50;47.30
2783;DHT22;1399;47.072;15.452;2022-07-23T14:49:34;28.50;47.30
2783;DHT22;1399;47.072;15.452;2022-07-23T14:52:01;28.50;47.30
2783;DHT22;1399;47.072;15.452;2022-07-23T14:54:27;28.40;47.20
2783;DHT22;1399;47.072;15.452;2022-07-23T14:56:58;28.40;47.30
2783;DHT22;1399;47.072;15.452;2022-07-23T14:59:24;28.40;48.00
2783;DHT22;1399;47.072;15.452;2022-07-23T15:01:51;28.30;47.40
2783;DHT22;1399;47.072;15.452;2022-07-23T15:04:16;28.30;47.50
2783;DHT22;1399;47.072;15.452;2022-07-23T15:06:42;28.30;47.60
2783;DHT22;1399;47.072;15.452;2022-07-23T15:09:09;28.30;47.70
2783;DHT22;1399;47.072;15.452;2022-07-23T15:11:34;28.30;47.70
2783;DHT22;1399;47.072;15.452;2022-07-23T15:14:05;28.30;47.70
2783;DHT22;1399;47.072;15.452;2022-07-23T15:16:32;28.30;47.70
2783;DHT22;1399;47.072;15.452;2022-07-23T15:18:58;28.30;47.60
2783;DHT22;1399;47.072;15.452;2022-07-23T15:21:24;28.30;47.60
2783;DHT22;1399;47.072;15.452;2022-07-23T15:23:50;28.30;47.50
2783;DHT22;1399;47.072;15.452;2022-07-23T15:26:16;28.30;47.40
2783;DHT22;1399;47.072;15.452;2022-07-23T15:28:43;28.30;47.30
2783;DHT22;1399;47.072;15.452;2022-07-23T15:31:09;28.30;47.20
2783;DHT22;1399;47.072;15.452;2022-07-23T15:33:35;28.30;47.20
2783;DHT22;1399;47.072;15.452;2022-07-23T15:36:02;28.30;47.10
2783;DHT22;1399;47.072;15.452;2022-07-23T15:38:27;28.30;47.10
2783;DHT22;1399;47.072;15.452;2022-07-23T15:40:55;28.30;47.00
2783;DHT22;1399;47.072;15.452;2022-07-23T15:43:22;28.30;47.00
2783;DHT22;1399;47.072;15.452;2022-07-23T15:45:48;28.30;47.10
2783;DHT22;1399;47.072;15.452;2022-07-23T15:48:15;28.30;47.10
2783;DHT22;1399;47.072;15.452;2022-07-23T15:50:41;28.30;47.10
2783;DHT22;1399;47.072;15.452;2022-07-23T15:53:07;28.20;47.20
2783;DHT22;1399;47.072;15.452;2022-07-23T15:55:33;28.20;47.20
2783;DHT22;1399;47.072;15.452;2022-07-23T15:57:58;28.20;47.30
2783;DHT22;1399;47.072;15.452;2022-07-23T16:00:24;28.20;47.30
2783;DHT22;1399;47.072;15.452;2022-07-23T16:02:50;28.20;47.50
2783;DHT22;1399;47.072;15.452;2022-07-23T16:05:16;28.10;47.50
2783;DHT22;1399;47.072;15.452;2022-07-23T16:08:01;28.10;47.70
2783;DHT22;1399;47.072;15.452;2022-07-23T16:10:27;28.10;47.80
2783;DHT22;1399;47.072;15.452;2022-07-23T16:12:53;28.10;47.90
2783;DHT22;1399;47.072;15.452;2022-07-23T16:15:19;28.10;48.70
2783;DHT22;1399;47.072;15.452;2022-07-23T16:17:45;28.10;48.10
2783;DHT22;1399;47.072;15.452;2022-07-23T16:20:11;28.10;48.30
2783;DHT22;1399;47.072;15.452;2022-07-23T16:22:38;28.10;48.40
2783;DHT22;1399;47.072;15.452;2022-07-23T16:25:05;28.00;48.40
2783;DHT22;1399;47.072;15.452;2022-07-23T16:27:32;28.00;48.50
2783;DHT22;1399;47.072;15.452;2022-07-23T16:29:58;28.00;48.60
2783;DHT22;1399;47.072;15.452;2022-07-23T16:32:24;28.00;48.60
2783;DHT22;1399;47.072;15.452;2022-07-23T16:34:50;27.90;48.70
2783;DHT22;1399;47.072;15.452;2022-07-23T16:37:15;27.90;48.70
2783;DHT22;1399;47.072;15.452;2022-07-23T16:39:41;27.90;48.80
2783;DHT22;1399;47.072;15.452;2022-07-23T16:42:07;27.90;48.80
2783;DHT22;1399;47.072;15.452;2022-07-23T16:44:33;27.90;48.80
2783;DHT22;1399;47.072;15.452;2022-07-23T16:46:59;27.80;48.80
2783;DHT22;1399;47.072;15.452;2022-07-23T16:49:26;27.80;48.90
2783;DHT22;1399;47.072;15.452;2022-07-23T16:51:51;27.80;49.00
2783;DHT22;1399;47.072;15.452;2022-07-23T16:54:17;27.80;49.10
2783;DHT22;1399;47.072;15.452;2022-07-23T16:56:43;27.70;49.00
